sensor_id;sensor_type;location;lat;lon;timestamp;temperature;humidity
80254;DHT22;69563;37.974;23.708;2023-06-10T00:01:58;26.80;45.40
80254;DHT22;69563;37.974;23.708;2023-06-10T00:04:26;26.80;45.50
80254;DHT22;69563;37.974;23.708;2023-06-10T00:06:52;26.80;45.40
80254;DHT22;69563;37.974;23.708;2023-06-10T00:09:19;26.70;45.40
80254;DHT22;69563;37.974;23.708;2023-06-10T00:11:47;26.80;45.50
80254;DHT22;69563;37.974;23.708;2023-06-10T00:14:13;26.80;45.50
80254;DHT22;69563;37.974;23.708;2023-06-10T00:16:39;26.70;46.40
80254;DHT22;69563;37.974;23.708;2023-06-10T00:19:05;26.80;45.50
80254;DHT22;69563;37.974;23.708;2023-06-10T00:21:32;26.80;45.50
80254;DHT22;69563;37.974;23.708;2023-06-10T00:24:11;26.80;45.50
80254;DHT22;69563;37.974;23.708;2023-06-10T00:26:38;26.70;45.50
80254;DHT22;69563;37.974;23.708;2023-06-10T00:29:04;26.70;45.50
80254;DHT22;69563;37.974;23.708;2023-06-10T00:31:30;26.70;45.50
80254;DHT22;69563;37.974;23.708;2023-06-10T00:33:56;26.70;45.50
80254;DHT22;69563;37.974;23.708;2023-06-10T00:36:22;26.70;45.50
80254;DHT22;69563;37.974;23.708;2023-06-10T00:38:47;26.70;45.50
80254;DHT22;69563;37.974;23.708;2023-06-10T00:41:14;26.60;45.40
80254;DHT22;69563;37.974;23.708;2023-06-10T00:43:39;26.70;45.50
80254;DHT22;69563;37.974;23.708;2023-06-10T00:46:05;26.60;45.40
80254;DHT22;69563;37.974;23.708;2023-06-10T00:48:32;26.60;45.40
80254;DHT22;69563;37.974;23.708;2023-06-10T00:50:59;26.60;45.60
80254;DHT22;69563;37.974;23.708;2023-06-10T00:53:26;26.60;45.60
80254;DHT22;69563;37.974;23.708;2023-06-10T00:55:52;26.60;45.50
80254;DHT22;69563;37.974;23.708;2023-06-10T00:58:18;26.60;45.40
80254;DHT22;69563;37.974;23.708;2023-06-10T01:00:44;26.60;45.40
80254;DHT22;69563;37.974;23.708;2023-06-10T01:03:10;26.60;45.40
80254;DHT22;69563;37.974;23.708;2023-06-10T01:05:38;26.60;45.40
80254;DHT22;69563;37.974;23.708;2023-06-10T01:08:19;26.60;45.40
80254;DHT22;69563;37.974;23.708;2023-06-10T01:10:54;26.60;45.40
80254;DHT22;69563;37.974;23.708;2023-06-10T01:13:25;26.60;45.50
80254;DHT22;69563;37.974;23.708;2023-06-10T01:15:55;26.50;45.50
80254;DHT22;69563;37.974;23.708;2023-06-10T01:18:21;26.50;45.50
80254;DHT22;69563;37.974;23.708;2023-06-10T01:20:47;26.50;45.60
80254;DHT22;69563;37.974;23.708;2023-06-10T01:23:15;26.50;45.50
80254;DHT22;69563;37.974;23.708;2023-06-10T01:25:55;26.50;45.60
80254;DHT22;69563;37.974;23.708;2023-06-10T01:33:41;26.50;45.60
80254;DHT22;69563;37.974;23.708;2023-06-10T01:36:08;26.50;45.60
80254;DHT22;69563;37.974;23.708;2023-06-10T01:38:40;26.50;45.60
80254;DHT22;69563;37.974;23.708;2023-06-10T01:41:08;26.50;45.70
80254;DHT22;69563;37.974;23.708;2023-06-10T01:43:34;26.50;45.70
80254;DHT22;69563;37.974;23.708;2023-06-10T01:46:00;26.50;45.80
80254;DHT22;69563;37.974;23.708;2023-06-10T01:48:27;26.50;45.80
80254;DHT22;69563;37.974;23.708;2023-06-10T01:50:52;26.50;45.80
80254;DHT22;69563;37.974;23.708;2023-06-10T01:53:20;26.50;45.80
80254;DHT22;69563;37.974;23.708;2023-06-10T01:55:46;26.50;45.80
80254;DHT22;69563;37.974;23.708;2023-06-10T01:58:11;26.50;45.90
80254;DHT22;69563;37.974;23.708;2023-06-10T02:00:37;26.50;45.90
80254;DHT22;69563;37.974;23.708;2023-06-10T02:03:03;26.50;45.80
80254;DHT22;69563;37.974;23.708;2023-06-10T02:05:28;26.50;45.80
80254;DHT22;69563;37.974;23.708;2023-06-10T02:07:54;26.50;45.60
80254;DHT22;69563;37.974;23.708;2023-06-10T02:10:20;26.50;45.60
80254;DHT22;69563;37.974;23.708;2023-06-10T02:12:45;26.50;45.60
80254;DHT22;69563;37.974;23.708;2023-06-10T02:15:11;26.40;45.60
80254;DHT22;69563;37.974;23.708;2023-06-10T02:17:37;26.40;45.60
80254;DHT22;69563;37.974;23.708;2023-06-10T02:20:03;26.40;45.70
80254;DHT22;69563;37.974;23.708;2023-06-10T02:22:32;26.40;45.60
80254;DHT22;69563;37.974;23.708;2023-06-10T02:24:58;26.40;45.70
80254;DHT22;69563;37.974;23.708;2023-06-10T02:27:24;26.40;45.70
80254;DHT22;69563;37.974;23.708;2023-06-10T02:29:50;26.40;45.80
80254;DHT22;69563;37.974;23.708;2023-06-10T02:32:15;26.40;45.80
80254;DHT22;69563;37.974;23.708;2023-06-10T02:34:41;26.40;45.70
80254;DHT22;69563;37.974;23.708;2023-06-10T02:37:09;26.40;45.70
80254;DHT22;69563;37.974;23.708;2023-06-10T02:39:35;26.40;45.80
80254;DHT22;69563;37.974;23.708;2023-06-10T02:42:00;26.40;45.70
80254;DHT22;69563;37.974;23.708;2023-06-10T02:44:26;26.40;45.70
80254;DHT22;69563;37.974;23.708;2023-06-10T02:46:52;26.40;45.80
80254;DHT22;69563;37.974;23.708;2023-06-10T02:49:17;26.40;45.80
80254;DHT22;69563;37.974;23.708;2023-06-10T02:51:43;26.40;45.90
80254;DHT22;69563;37.974;23.708;2023-06-10T02:54:09;26.40;45.90
80254;DHT22;69563;37.974;23.708;2023-06-10T02:56:35;26.40;46.00
80254;DHT22;69563;37.974;23.708;2023-06-10T02:59:02;26.40;46.00
80254;DHT22;69563;37.974;23.708;2023-06-10T03:01:27;26.30;46.00
80254;DHT22;69563;37.974;23.708;2023-06-10T03:03:53;26.30;46.00
80254;DHT22;69563;37.974;23.708;2023-06-10T03:06:21;26.40;46.00
80254;DHT22;69563;37.974;23.708;2023-06-10T03:08:49;26.40;46.00
80254;DHT22;69563;37.974;23.708;2023-06-10T03:11:15;26.40;45.90
80254;DHT22;69563;37.974;23.708;2023-06-10T03:13:41;26.40;45.90
80254;DHT22;69563;37.974;23.708;2023-06-10T03:16:07;26.40;46.10
80254;DHT22;69563;37.974;23.708;2023-06-10T03:18:33;26.40;46.10
80254;DHT22;69563;37.974;23.708;2023-06-10T03:20:59;26.40;46.20
80254;DHT22;69563;37.974;23.708;2023-06-10T03:23:25;26.40;46.10
80254;DHT22;69563;37.974;23.708;2023-06-10T03:25:52;26.40;46.00
80254;DHT22;69563;37.974;23.708;2023-06-10T03:28:20;26.40;46.00
80254;DHT22;69563;37.974;23.708;2023-06-10T03:30:47;26.40;45.90
80254;DHT22;69563;37.974;23.708;2023-06-10T03:33:13;26.40;45.90
80254;DHT22;69563;37.974;23.708;2023-06-10T03:35:39;26.40;45.90
80254;DHT22;69563;37.974;23.708;2023-06-10T03:38:05;26.40;45.80
80254;DHT22;69563;37.974;23.708;2023-06-10T03:40:31;26.40;45.80
80254;DHT22;69563;37.974;23.708;2023-06-10T03:42:58;26.40;45.80
80254;DHT22;69563;37.974;23.708;2023-06-10T03:45:23;26.40;45.70
80254;DHT22;69563;37.974;23.708;2023-06-10T03:47:50;26.50;45.70
80254;DHT22;69563;37.974;23.708;2023-06-10T03:50:16;26.50;45.60
80254;DHT22;69563;37.974;23.708;2023-06-10T03:52:42;26.60;45.60
80254;DHT22;69563;37.974;23.708;2023-06-10T03:55:07;26.60;45.50
80254;DHT22;69563;37.974;23.708;2023-06-10T03:57:33;26.70;45.40
80254;DHT22;69563;37.974;23.708;2023-06-10T03:59:59;26.70;45.20
80254;DHT22;69563;37.974;23.708;2023-06-10T04:02:25;26.70;45.00
80254;DHT22;69563;37.974;23.708;2023-06-10T04:04:50;26.80;45.90
80254;DHT22;69563;37.974;23.708;2023-06-10T04:07:17;26.90;44.90
80254;DHT22;69563;37.974;23.708;2023-06-10T04:09:44;26.90;44.70
80254;DHT22;69563;37.974;23.708;2023-06-10T04:12:10;27.00;44.60
80254;DHT22;69563;37.974;23.708;2023-06-10T04:14:36;27.10;44.40
80254;DHT22;69563;37.974;23.708;2023-06-10T04:17:04;27.10;44.30
80254;DHT22;69563;37.974;23.708;2023-06-10T04:19:32;27.20;44.20
80254;DHT22;69563;37.974;23.708;2023-06-10T04:22:00;27.20;44.00
80254;DHT22;69563;37.974;23.708;2023-06-10T04:24:26;27.30;43.90
80254;DHT22;69563;37.974;23.708;2023-06-10T04:26:51;27.40;43.80
80254;DHT22;69563;37.974;23.708;2023-06-10T04:29:17;27.40;43.70
80254;DHT22;69563;37.974;23.708;2023-06-10T04:31:43;27.50;43.70
80254;DHT22;69563;37.974;23.708;2023-06-10T04:34:09;27.60;43.50
80254;DHT22;69563;37.974;23.708;2023-06-10T04:36:34;27.60;43.40
80254;DHT22;69563;37.974;23.708;2023-06-10T04:39:00;27.70;43.30
80254;DHT22;69563;37.974;23.708;2023-06-10T04:41:27;27.70;43.10
80254;DHT22;69563;37.974;23.708;2023-06-10T04:43:52;27.80;43.10
80254;DHT22;69563;37.974;23.708;2023-06-10T04:46:19;27.90;43.00
80254;DHT22;69563;37.974;23.708;2023-06-10T04:48:44;28.00;42.90
80254;DHT22;69563;37.974;23.708;2023-06-10T04:51:12;28.00;42.80
80254;DHT22;69563;37.974;23.708;2023-06-10T04:53:39;28.10;42.60
80254;DHT22;69563;37.974;23.708;2023-06-10T04:56:05;28.20;42.60
80254;DHT22;69563;37.974;23.708;2023-06-10T04:58:30;28.20;42.40
80254;DHT22;69563;37.974;23.708;2023-06-10T05:00:56;28.30;42.30
80254;DHT22;69563;37.974;23.708;2023-06-10T05:03:22;28.30;42.20
80254;DHT22;69563;37.974;23.708;2023-06-10T05:05:47;28.40;43.10
80254;DHT22;69563;37.974;23.708;2023-06-10T05:08:13;28.50;42.00
80254;DHT22;69563;37.974;23.708;2023-06-10T05:10:39;28.60;41.90
80254;DHT22;69563;37.974;23.708;2023-06-10T05:13:05;28.60;41.70
80254;DHT22;69563;37.974;23.708;2023-06-10T05:15:30;28.70;41.60
80254;DHT22;69563;37.974;23.708;2023-06-10T05:17:57;28.70;41.40
80254;DHT22;69563;37.974;23.708;2023-06-10T05:20:23;28.80;41.30
80254;DHT22;69563;37.974;23.708;2023-06-10T05:22:50;28.90;41.30
80254;DHT22;69563;37.974;23.708;2023-06-10T05:25:16;28.90;41.10
80254;DHT22;69563;37.974;23.708;2023-06-10T05:27:42;29.00;41.20
80254;DHT22;69563;37.974;23.708;2023-06-10T05:30:10;29.10;41.00
80254;DHT22;69563;37.974;23.708;2023-06-10T05:32:36;29.10;40.80
80254;DHT22;69563;37.974;23.708;2023-06-10T05:35:01;29.20;40.60
80254;DHT22;69563;37.974;23.708;2023-06-10T05:37:29;29.20;40.60
80254;DHT22;69563;37.974;23.708;2023-06-10T05:39:55;29.30;40.70
80254;DHT22;69563;37.974;23.708;2023-06-10T05:42:20;29.30;40.70
80254;DHT22;69563;37.974;23.708;2023-06-10T05:44:46;29.30;40.50
80254;DHT22;69563;37.974;23.708;2023-06-10T05:47:12;29.40;40.40
80254;DHT22;69563;37.974;23.708;2023-06-10T05:49:37;29.50;40.40
80254;DHT22;69563;37.974;23.708;2023-06-10T05:52:03;29.50;40.40
80254;DHT22;69563;37.974;23.708;2023-06-10T05:54:29;29.60;40.30
80254;DHT22;69563;37.974;23.708;2023-06-10T05:56:55;29.60;40.10
80254;DHT22;69563;37.974;23.708;2023-06-10T05:59:21;29.60;40.00
80254;DHT22;69563;37.974;23.708;2023-06-10T06:01:48;29.70;40.00
80254;DHT22;69563;37.974;23.708;2023-06-10T06:04:16;29.70;40.00
80254;DHT22;69563;37.974;23.708;2023-06-10T06:06:41;29.70;39.90
80254;DHT22;69563;37.974;23.708;2023-06-10T06:09:07;29.70;39.90
80254;DHT22;69563;37.974;23.708;2023-06-10T06:11:34;29.70;39.90
80254;DHT22;69563;37.974;23.708;2023-06-10T06:14:00;29.70;39.90
80254;DHT22;69563;37.974;23.708;2023-06-10T06:16:26;29.70;40.00
80254;DHT22;69563;37.974;23.708;2023-06-10T06:18:52;29.70;40.00
80254;DHT22;69563;37.974;23.708;2023-06-10T06:21:17;29.70;39.90
80254;DHT22;69563;37.974;23.708;2023-06-10T06:23:43;29.70;40.00
80254;DHT22;69563;37.974;23.708;2023-06-10T06:26:09;29.70;40.00
80254;DHT22;69563;37.974;23.708;2023-06-10T06:28:35;29.70;40.00
80254;DHT22;69563;37.974;23.708;2023-06-10T06:31:01;29.60;40.10
80254;DHT22;69563;37.974;23.708;2023-06-10T06:33:26;29.60;40.10
80254;DHT22;69563;37.974;23.708;2023-06-10T06:35:52;29.60;40.30
80254;DHT22;69563;37.974;23.708;2023-06-10T06:38:18;29.60;40.40
80254;DHT22;69563;37.974;23.708;2023-06-10T06:40:44;29.60;40.50
80254;DHT22;69563;37.974;23.708;2023-06-10T06:43:09;29.60;40.50
80254;DHT22;69563;37.974;23.708;2023-06-10T06:45:35;29.60;40.60
80254;DHT22;69563;37.974;23.708;2023-06-10T06:48:01;29.60;40.60
80254;DHT22;69563;37.974;23.708;2023-06-10T06:50:26;29.60;40.70
80254;DHT22;69563;37.974;23.708;2023-06-10T06:52:52;29.60;40.80
80254;DHT22;69563;37.974;23.708;2023-06-10T06:55:18;29.60;40.80
80254;DHT22;69563;37.974;23.708;2023-06-10T06:57:43;29.60;40.90
80254;DHT22;69563;37.974;23.708;2023-06-10T07:00:10;29.60;40.90
80254;DHT22;69563;37.974;23.708;2023-06-10T07:02:36;29.60;40.90
80254;DHT22;69563;37.974;23.708;2023-06-10T07:05:01;29.70;42.00
80254;DHT22;69563;37.974;23.708;2023-06-10T07:07:28;29.70;41.00
80254;DHT22;69563;37.974;23.708;2023-06-10T07:09:54;29.70;41.00
80254;DHT22;69563;37.974;23.708;2023-06-10T07:12:20;29.70;41.00
80254;DHT22;69563;37.974;23.708;2023-06-10T07:14:49;29.70;41.00
80254;DHT22;69563;37.974;23.708;2023-06-10T07:17:16;29.70;41.00
80254;DHT22;69563;37.974;23.708;2023-06-10T07:19:43;29.70;41.00
80254;DHT22;69563;37.974;23.708;2023-06-10T07:22:09;29.70;41.00
80254;DHT22;69563;37.974;23.708;2023-06-10T07:24:35;29.70;41.00
80254;DHT22;69563;37.974;23.708;2023-06-10T07:27:01;29.80;41.00
80254;DHT22;69563;37.974;23.708;2023-06-10T07:29:26;29.80;41.00
80254;DHT22;69563;37.974;23.708;2023-06-10T07:31:52;29.80;41.00
80254;DHT22;69563;37.974;23.708;2023-06-10T07:34:18;29.80;41.10
80254;DHT22;69563;37.974;23.708;2023-06-10T07:36:44;29.80;41.10
80254;DHT22;69563;37.974;23.708;2023-06-10T07:39:10;29.80;41.10
80254;DHT22;69563;37.974;23.708;2023-06-10T07:41:36;29.80;41.10
80254;DHT22;69563;37.974;23.708;2023-06-10T07:44:02;29.80;41.00
80254;DHT22;69563;37.974;23.708;2023-06-10T07:46:27;29.80;41.00
80254;DHT22;69563;37.974;23.708;2023-06-10T07:48:54;29.80;41.10
80254;DHT22;69563;37.974;23.708;2023-06-10T07:51:21;29.80;42.20
80254;DHT22;69563;37.974;23.708;2023-06-10T07:53:47;29.80;41.30
80254;DHT22;69563;37.974;23.708;2023-06-10T07:56:12;29.80;41.30
80254;DHT22;69563;37.974;23.708;2023-06-10T07:58:38;29.80;41.40
80254;DHT22;69563;37.974;23.708;2023-06-10T08:01:04;29.80;41.50
80254;DHT22;69563;37.974;23.708;2023-06-10T08:03:30;29.80;41.50
80254;DHT22;69563;37.974;23.708;2023-06-10T08:05:56;29.80;41.50
80254;DHT22;69563;37.974;23.708;2023-06-10T08:08:21;29.80;41.70
80254;DHT22;69563;37.974;23.708;2023-06-10T08:10:47;29.80;41.70
80254;DHT22;69563;37.974;23.708;2023-06-10T08:13:14;29.80;41.70
80254;DHT22;69563;37.974;23.708;2023-06-10T08:15:40;29.80;41.70
80254;DHT22;69563;37.974;23.708;2023-06-10T08:18:06;29.80;41.70
80254;DHT22;69563;37.974;23.708;2023-06-10T08:20:32;29.80;41.80
80254;DHT22;69563;37.974;23.708;2023-06-10T08:22:58;29.70;41.70
80254;DHT22;69563;37.974;23.708;2023-06-10T08:25:23;29.70;41.70
80254;DHT22;69563;37.974;23.708;2023-06-10T08:27:49;29.70;41.80
80254;DHT22;69563;37.974;23.708;2023-06-10T08:30:16;29.70;41.80
80254;DHT22;69563;37.974;23.708;2023-06-10T08:32:42;29.70;41.80
80254;DHT22;69563;37.974;23.708;2023-06-10T08:35:08;29.70;41.60
80254;DHT22;69563;37.974;23.708;2023-06-10T08:37:33;29.70;41.70
80254;DHT22;69563;37.974;23.708;2023-06-10T08:39:59;29.70;41.60
80254;DHT22;69563;37.974;23.708;2023-06-10T08:42:33;29.70;41.60
80254;DHT22;69563;37.974;23.708;2023-06-10T08:45:01;29.70;41.60
80254;DHT22;69563;37.974;23.708;2023-06-10T08:47:29;29.70;41.60
80254;DHT22;69563;37.974;23.708;2023-06-10T08:49:57;29.70;41.60
80254;DHT22;69563;37.974;23.708;2023-06-10T08:52:33;29.70;41.60
80254;DHT22;69563;37.974;23.708;2023-06-10T08:55:25;29.70;41.50
80254;DHT22;69563;37.974;23.708;2023-06-10T08:57:51;29.70;41.50
80254;DHT22;69563;37.974;23.708;2023-06-10T09:00:18;29.70;41.50
80254;DHT22;69563;37.974;23.708;2023-06-10T09:02:44;29.70;41.40
80254;DHT22;69563;37.974;23.708;2023-06-10T09:05:10;29.70;41.50
80254;DHT22;69563;37.974;23.708;2023-06-10T09:07:36;29.70;41.50
80254;DHT22;69563;37.974;23.708;2023-06-10T09:10:03;29.70;41.50
80254;DHT22;69563;37.974;23.708;2023-06-10T09:12:33;29.70;41.50
80254;DHT22;69563;37.974;23.708;2023-06-10T09:14:59;29.70;41.60
80254;DHT22;69563;37.974;23.708;2023-06-10T09:17:25;29.70;41.50
80254;DHT22;69563;37.974;23.708;2023-06-10T09:19:52;29.70;41.50
80254;DHT22;69563;37.974;23.708;2023-06-10T09:22:23;29.70;41.60
80254;DHT22;69563;37.974;23.708;2023-06-10T09:24:50;29.70;41.60
80254;DHT22;69563;37.974;23.708;2023-06-10T09:27:16;29.70;41.60
80254;DHT22;69563;37.974;23.708;2023-06-10T09:29:52;29.60;41.70
80254;DHT22;69563;37.974;23.708;2023-06-10T09:32:19;29.70;41.70
80254;DHT22;69563;37.974;23.708;2023-06-10T09:34:45;29.60;41.60
80254;DHT22;69563;37.974;23.708;2023-06-10T09:37:11;29.60;41.60
80254;DHT22;69563;37.974;23.708;2023-06-10T09:39:40;29.60;41.60
80254;DHT22;69563;37.974;23.708;2023-06-10T09:42:16;29.60;41.60
80254;DHT22;69563;37.974;23.708;2023-06-10T09:44:52;29.60;41.60
80254;DHT22;69563;37.974;23.708;2023-06-10T09:47:22;29.60;41.60
80254;DHT22;69563;37.974;23.708;2023-06-10T09:49:49;29.60;41.60
80254;DHT22;69563;37.974;23.708;2023-06-10T09:52:24;29.60;41.60
80254;DHT22;69563;37.974;23.708;2023-06-10T09:54:58;29.60;41.50
80254;DHT22;69563;37.974;23.708;2023-06-10T09:57:24;29.60;41.60
80254;DHT22;69563;37.974;23.708;2023-06-10T09:59:53;29.60;41.50
80254;DHT22;69563;37.974;23.708;2023-06-10T10:02:20;29.60;41.50
80254;DHT22;69563;37.974;23.708;2023-06-10T10:04:46;29.60;41.60
80254;DHT22;69563;37.974;23.708;2023-06-10T10:07:12;29.60;41.50
80254;DHT22;69563;37.974;23.708;2023-06-10T10:09:39;29.60;41.60
80254;DHT22;69563;37.974;23.708;2023-06-10T10:12:15;29.60;41.50
80254;DHT22;69563;37.974;23.708;2023-06-10T10:14:46;29.60;41.50
80254;DHT22;69563;37.974;23.708;2023-06-10T10:17:14;29.70;41.50
80254;DHT22;69563;37.974;23.708;2023-06-10T10:19:48;29.70;41.40
80254;DHT22;69563;37.974;23.708;2023-06-10T10:22:29;29.70;41.40
80254;DHT22;69563;37.974;23.708;2023-06-10T10:25:01;29.70;41.30
80254;DHT22;69563;37.974;23.708;2023-06-10T10:27:33;29.70;41.30
80254;DHT22;69563;37.974;23.708;2023-06-10T10:30:02;29.70;41.40
80254;DHT22;69563;37.974;23.708;2023-06-10T10:32:37;29.80;41.30
80254;DHT22;69563;37.974;23.708;2023-06-10T10:35:08;29.80;41.20
80254;DHT22;69563;37.974;23.708;2023-06-10T10:37:35;29.80;41.10
80254;DHT22;69563;37.974;23.708;2023-06-10T10:40:02;29.80;41.00
80254;DHT22;69563;37.974;23.708;2023-06-10T10:42:29;29.80;41.00
80254;DHT22;69563;37.974;23.708;2023-06-10T10:44:56;29.80;41.00
80254;DHT22;69563;37.974;23.708;2023-06-10T10:47:22;29.90;41.10
80254;DHT22;69563;37.974;23.708;2023-06-10T10:49:52;29.90;41.20
80254;DHT22;69563;37.974;23.708;2023-06-10T10:52:19;29.80;41.00
80254;DHT22;69563;37.974;23.708;2023-06-10T10:54:46;29.80;41.00
80254;DHT22;69563;37.974;23.708;2023-06-10T10:57:20;29.80;41.10
80254;DHT22;69563;37.974;23.708;2023-06-10T11:02:18;29.80;41.10
80254;DHT22;69563;37.974;23.708;2023-06-10T11:04:46;29.80;41.00
80254;DHT22;69563;37.974;23.708;2023-06-10T11:07:12;29.80;41.10
80254;DHT22;69563;37.974;23.708;2023-06-10T11:15:18;29.80;41.00
80254;DHT22;69563;37.974;23.708;2023-06-10T11:18:12;29.90;41.10
80254;DHT22;69563;37.974;23.708;2023-06-10T11:31:27;29.80;41.10
80254;DHT22;69563;37.974;23.708;2023-06-10T11:33:58;29.90;41.20
80254;DHT22;69563;37.974;23.708;2023-06-10T11:36:24;29.90;41.10
80254;DHT22;69563;37.974;23.708;2023-06-10T11:38:55;29.80;41.00
80254;DHT22;69563;37.974;23.708;2023-06-10T11:41:26;29.80;41.10
80254;DHT22;69563;37.974;23.708;2023-06-10T11:43:53;29.90;41.10
80254;DHT22;69563;37.974;23.708;2023-06-10T11:46:19;29.90;41.10
80254;DHT22;69563;37.974;23.708;2023-06-10T11:48:52;29.90;41.10
80254;DHT22;69563;37.974;23.708;2023-06-10T11:51:18;30.00;41.10
80254;DHT22;69563;37.974;23.708;2023-06-10T11:53:48;29.90;41.00
80254;DHT22;69563;37.974;23.708;2023-06-10T11:56:20;29.90;40.80
80254;DHT22;69563;37.974;23.708;2023-06-10T11:58:59;29.90;40.80
80254;DHT22;69563;37.974;23.708;2023-06-10T12:01:31;29.90;40.80
80254;DHT22;69563;37.974;23.708;2023-06-10T12:04:05;29.80;40.70
80254;DHT22;69563;37.974;23.708;2023-06-10T12:06:42;29.80;40.70
80254;DHT22;69563;37.974;23.708;2023-06-10T12:09:19;29.80;40.60
80254;DHT22;69563;37.974;23.708;2023-06-10T12:11:53;29.80;40.60
80254;DHT22;69563;37.974;23.708;2023-06-10T12:14:51;29.80;40.60
80254;DHT22;69563;37.974;23.708;2023-06-10T12:17:42;29.80;40.60
80254;DHT22;69563;37.974;23.708;2023-06-10T12:20:08;29.80;40.60
80254;DHT22;69563;37.974;23.708;2023-06-10T12:22:42;29.80;40.60
80254;DHT22;69563;37.974;23.708;2023-06-10T12:25:08;29.70;40.60
80254;DHT22;69563;37.974;23.708;2023-06-10T12:27:35;29.70;40.70
80254;DHT22;69563;37.974;23.708;2023-06-10T12:30:03;29.60;40.60
80254;DHT22;69563;37.974;23.708;2023-06-10T12:32:56;29.60;40.60
80254;DHT22;69563;37.974;23.708;2023-06-10T12:35:26;29.60;40.50
80254;DHT22;69563;37.974;23.708;2023-06-10T12:38:06;29.60;40.60
80254;DHT22;69563;37.974;23.708;2023-06-10T12:40:37;29.60;40.60
80254;DHT22;69563;37.974;23.708;2023-06-10T12:43:07;29.60;40.60
80254;DHT22;69563;37.974;23.708;2023-06-10T12:45:37;29.50;40.50
80254;DHT22;69563;37.974;23.708;2023-06-10T12:50:35;29.50;40.50
80254;DHT22;69563;37.974;23.708;2023-06-10T12:53:03;29.50;40.40
80254;DHT22;69563;37.974;23.708;2023-06-10T12:55:29;29.50;40.40
80254;DHT22;69563;37.974;23.708;2023-06-10T12:57:54;29.50;40.50
80254;DHT22;69563;37.974;23.708;2023-06-10T13:00:21;29.50;40.40
80254;DHT22;69563;37.974;23.708;2023-06-10T13:02:49;29.50;40.50
80254;DHT22;69563;37.974;23.708;2023-06-10T13:05:16;29.50;40.40
80254;DHT22;69563;37.974;23.708;2023-06-10T13:07:42;29.50;40.40
80254;DHT22;69563;37.974;23.708;2023-06-10T13:10:08;29.50;40.40
80254;DHT22;69563;37.974;23.708;2023-06-10T13:12:33;29.50;40.30
80254;DHT22;69563;37.974;23.708;2023-06-10T13:14:59;29.50;40.40
80254;DHT22;69563;37.974;23.708;2023-06-10T13:17:27;29.40;40.30
80254;DHT22;69563;37.974;23.708;2023-06-10T13:19:53;29.50;40.40
80254;DHT22;69563;37.974;23.708;2023-06-10T13:22:19;29.50;40.50
80254;DHT22;69563;37.974;23.708;2023-06-10T13:24:46;29.50;40.40
80254;DHT22;69563;37.974;23.708;2023-06-10T13:27:12;29.40;40.50
80254;DHT22;69563;37.974;23.708;2023-06-10T13:29:39;29.40;40.60
80254;DHT22;69563;37.974;23.708;2023-06-10T13:32:07;29.40;40.80
80254;DHT22;69563;37.974;23.708;2023-06-10T13:34:33;29.40;40.80
80254;DHT22;69563;37.974;23.708;2023-06-10T13:36:58;29.30;40.70
80254;DHT22;69563;37.974;23.708;2023-06-10T13:39:24;29.30;40.80
80254;DHT22;69563;37.974;23.708;2023-06-10T13:41:51;29.30;40.80
80254;DHT22;69563;37.974;23.708;2023-06-10T13:44:17;29.20;40.80
80254;DHT22;69563;37.974;23.708;2023-06-10T13:46:43;29.30;41.00
80254;DHT22;69563;37.974;23.708;2023-06-10T13:49:08;29.30;41.00
80254;DHT22;69563;37.974;23.708;2023-06-10T13:51:34;29.30;41.00
80254;DHT22;69563;37.974;23.708;2023-06-10T13:54:00;29.30;40.90
80254;DHT22;69563;37.974;23.708;2023-06-10T13:56:26;29.30;41.00
80254;DHT22;69563;37.974;23.708;2023-06-10T13:58:52;29.30;40.90
80254;DHT22;69563;37.974;23.708;2023-06-10T14:01:19;29.30;40.90
80254;DHT22;69563;37.974;23.708;2023-06-10T14:03:45;29.30;40.90
80254;DHT22;69563;37.974;23.708;2023-06-10T14:06:11;29.30;40.90
80254;DHT22;69563;37.974;23.708;2023-06-10T14:08:40;29.30;40.90
80254;DHT22;69563;37.974;23.708;2023-06-10T14:11:06;29.30;40.90
80254;DHT22;69563;37.974;23.708;2023-06-10T14:13:32;29.30;41.00
80254;DHT22;69563;37.974;23.708;2023-06-10T14:15:59;29.30;40.90
80254;DHT22;69563;37.974;23.708;2023-06-10T14:18:28;29.30;40.90
80254;DHT22;69563;37.974;23.708;2023-06-10T14:20:54;29.40;41.00
80254;DHT22;69563;37.974;23.708;2023-06-10T14:23:19;29.40;40.80
80254;DHT22;69563;37.974;23.708;2023-06-10T14:25:45;29.30;40.90
80254;DHT22;69563;37.974;23.708;2023-06-10T14:28:11;29.30;40.90
80254;DHT22;69563;37.974;23.708;2023-06-10T14:30:36;29.30;41.00
80254;DHT22;69563;37.974;23.708;2023-06-10T14:33:02;29.30;41.00
80254;DHT22;69563;37.974;23.708;2023-06-10T14:35:28;29.30;41.10
80254;DHT22;69563;37.974;23.708;2023-06-10T14:37:53;29.30;41.00
80254;DHT22;69563;37.974;23.708;2023-06-10T14:40:19;29.30;41.00
80254;DHT22;69563;37.974;23.708;2023-06-10T14:42:48;29.30;40.90
80254;DHT22;69563;37.974;23.708;2023-06-10T14:45:14;29.30;40.80
80254;DHT22;69563;37.974;23.708;2023-06-10T14:47:40;29.30;40.80
80254;DHT22;69563;37.974;23.708;2023-06-10T14:50:06;29.30;40.70
80254;DHT22;69563;37.974;23.708;2023-06-10T14:52:32;29.30;40.80
80254;DHT22;69563;37.974;23.708;2023-06-10T14:54:58;29.30;40.80
80254;DHT22;69563;37.974;23.708;2023-06-10T14:57:24;29.30;40.90
80254;DHT22;69563;37.974;23.708;2023-06-10T14:59:49;29.30;40.80
80254;DHT22;69563;37.974;23.708;2023-06-10T15:02:15;29.30;40.90
80254;DHT22;69563;37.974;23.708;2023-06-10T15:04:41;29.30;41.00
80254;DHT22;69563;37.974;23.708;2023-06-10T15:07:06;29.30;41.00
80254;DHT22;69563;37.974;23.708;2023-06-10T15:09:32;29.30;41.00
80254;DHT22;69563;37.974;23.708;2023-06-10T15:11:58;29.20;41.00
80254;DHT22;69563;37.974;23.708;2023-06-10T15:14:25;29.20;41.10
80254;DHT22;69563;37.974;23.708;2023-06-10T15:16:51;29.20;41.10
80254;DHT22;69563;37.974;23.708;2023-06-10T15:19:17;29.20;41.20
80254;DHT22;69563;37.974;23.708;2023-06-10T15:21:42;29.20;41.40
80254;DHT22;69563;37.974;23.708;2023-06-10T15:24:08;29.10;41.40
80254;DHT22;69563;37.974;23.708;2023-06-10T15:26:34;29.10;41.40
80254;DHT22;69563;37.974;23.708;2023-06-10T15:29:00;29.10;41.50
80254;DHT22;69563;37.974;23.708;2023-06-10T15:31:30;29.10;41.60
80254;DHT22;69563;37.974;23.708;2023-06-10T15:33:58;29.10;41.80
80254;DHT22;69563;37.974;23.708;2023-06-10T15:36:24;29.10;41.80
80254;DHT22;69563;37.974;23.708;2023-06-10T15:38:51;29.10;41.80
80254;DHT22;69563;37.974;23.708;2023-06-10T15:41:16;29.10;41.90
80254;DHT22;69563;37.974;23.708;2023-06-10T15:43:42;29.00;41.90